createdAt,value
2022-08-03T00:02:16.003Z,20.91
2022-08-03T00:04:42.721Z,20.96
2022-08-03T00:07:09.217Z,20.84
2022-08-03T00:09:36.506Z,20.80
2022-08-03T00:12:03.468Z,20.77
2022-08-03T00:14:30.856Z,20.65
2022-08-03T00:16:58.088Z,20.58
2022-08-03T00:19:24.688Z,20.59
2022-08-03T00:21:51.222Z,20.68
2022-08-03T00:24:17.812Z,20.65
2022-08-03T00:26:44.362Z,20.70
2022-08-03T00:29:11.434Z,20.75
2022-08-03T00:31:51.424Z,20.82
2022-08-03T00:34:36.307Z,20.79
2022-08-03T00:37:14.588Z,20.77
2022-08-03T00:39:45.858Z,20.75
2022-08-03T00:42:12.456Z,20.72
2022-08-03T00:44:41.079Z,20.72
2022-08-03T00:47:10.226Z,20.72
2022-08-03T00:49:41.450Z,20.71
2022-08-03T00:52:17.270Z,20.70
2022-08-03T00:54:43.891Z,20.76
2022-08-03T00:57:10.631Z,20.75
2022-08-03T00:59:44.673Z,20.58
2022-08-03T01:02:11.362Z,20.51
2022-08-03T01:04:37.937Z,20.49
2022-08-03T01:07:19.499Z,20.48
2022-08-03T01:09:52.749Z,20.41
2022-08-03T01:12:28.415Z,20.36
2022-08-03T01:15:28.758Z,20.39
2022-08-03T01:18:20.632Z,20.44
2022-08-03T01:20:55.824Z,20.36
2022-08-03T01:23:54.307Z,20.31
2022-08-03T01:26:42.875Z,20.33
2022-08-03T01:29:12.181Z,20.37
2022-08-03T01:32:58.773Z,20.40
2022-08-03T01:34:47.063Z,20.47
2022-08-03T01:37:19.100Z,20.38
2022-08-03T01:39:46.403Z,20.42
2022-08-03T01:42:14.968Z,20.47
2022-08-03T01:44:45.062Z,20.55
2022-08-03T01:47:12.884Z,20.56
2022-08-03T01:49:43.179Z,20.57
2022-08-03T01:52:11.480Z,20.58
2022-08-03T01:54:43.332Z,20.56
2022-08-03T01:57:10.277Z,20.60
2022-08-03T01:59:38.953Z,20.62
2022-08-03T02:02:31.800Z,20.63
2022-08-03T02:04:57.723Z,20.63
2022-08-03T02:07:26.887Z,20.63
2022-08-03T02:09:55.830Z,20.67
2022-08-03T02:12:25.105Z,20.66
2022-08-03T02:14:51.994Z,20.66
2022-08-03T02:17:39.070Z,20.66
2022-08-03T02:20:07.387Z,20.68
2022-08-03T02:22:34.926Z,20.72
2022-08-03T02:25:01.839Z,20.76
2022-08-03T02:27:32.116Z,20.75
2022-08-03T02:30:09.917Z,20.73
2022-08-03T02:32:40.344Z,20.76
2022-08-03T02:35:11.483Z,20.76
2022-08-03T02:37:45.028Z,20.79
2022-08-03T02:40:19.225Z,20.80
2022-08-03T02:42:48.602Z,20.81
2022-08-03T02:45:18.358Z,20.78
2022-08-03T02:47:54.320Z,20.77
2022-08-03T02:50:22.997Z,20.78
2022-08-03T02:52:51.128Z,20.77
2022-08-03T02:55:19.691Z,20.76
2022-08-03T02:57:47.707Z,20.75
2022-08-03T03:00:27.628Z,20.77
2022-08-03T03:02:58.381Z,20.81
2022-08-03T03:05:55.376Z,20.82
2022-08-03T03:08:18.549Z,20.68
2022-08-03T03:10:48.826Z,20.54
2022-08-03T03:13:21.125Z,20.45
2022-08-03T03:15:48.565Z,20.38
2022-08-03T03:18:22.084Z,20.36
2022-08-03T03:20:51.687Z,20.36
2022-08-03T03:23:22.805Z,20.33
2022-08-03T03:25:50.329Z,20.31
2022-08-03T03:28:17.413Z,20.29
2022-08-03T03:30:44.387Z,20.27
2022-08-03T03:33:12.047Z,20.21
2022-08-03T03:35:40.148Z,20.15
2022-08-03T03:38:09.269Z,20.05
2022-08-03T03:40:36.807Z,19.87
2022-08-03T03:43:07.235Z,19.86
2022-08-03T03:45:35.144Z,19.83
2022-08-03T03:48:04.143Z,19.84
2022-08-03T03:50:35.479Z,19.84
2022-08-03T03:53:03.525Z,19.87
2022-08-03T03:55:30.595Z,19.90
2022-08-03T03:57:57.185Z,19.96
2022-08-03T04:00:23.887Z,19.94
2022-08-03T04:02:50.414Z,19.91
2022-08-03T04:05:35.487Z,19.91
2022-08-03T04:08:24.957Z,19.88
2022-08-03T04:11:35.391Z,19.90
2022-08-03T04:14:04.698Z,19.83
2022-08-03T04:16:35.187Z,19.85
2022-08-03T04:19:08.193Z,19.83
2022-08-03T04:21:37.450Z,19.85
2022-08-03T04:24:07.515Z,19.89
2022-08-03T04:26:39.506Z,19.83
2022-08-03T04:29:07.907Z,19.83
2022-08-03T04:31:36.786Z,19.72
2022-08-03T04:34:04.355Z,19.70
2022-08-03T04:36:36.730Z,19.70
2022-08-03T04:39:16.235Z,19.71
2022-08-03T04:42:07.666Z,19.75
2022-08-03T04:44:35.708Z,19.77
2022-08-03T04:47:02.443Z,19.74
2022-08-03T04:49:31.053Z,19.80
2022-08-03T04:51:58.433Z,19.85
2022-08-03T04:54:25.069Z,19.83
2022-08-03T04:56:51.557Z,20.00
2022-08-03T04:59:18.118Z,20.04
2022-08-03T05:01:44.771Z,20.05
2022-08-03T05:04:11.384Z,20.06
2022-08-03T05:06:39.801Z,20.11
2022-08-03T05:09:14.981Z,20.12
2022-08-03T05:12:01.538Z,20.34
2022-08-03T05:14:28.480Z,20.43
2022-08-03T05:16:55.061Z,20.52
2022-08-03T05:19:21.645Z,20.55
2022-08-03T05:21:51.910Z,20.55
2022-08-03T05:24:19.280Z,20.60
2022-08-03T05:26:45.818Z,20.72
2022-08-03T05:29:12.388Z,20.80
2022-08-03T05:31:38.915Z,20.84
2022-08-03T05:34:05.567Z,20.94
2022-08-03T05:36:32.590Z,21.03
2022-08-03T05:39:02.616Z,21.08
2022-08-03T05:41:37.151Z,21.18
2022-08-03T05:44:04.493Z,21.28
2022-08-03T05:46:31.094Z,21.34
2022-08-03T05:48:57.697Z,21.35
2022-08-03T05:51:24.353Z,21.36
2022-08-03T05:53:50.986Z,21.39
2022-08-03T05:56:17.556Z,21.47
2022-08-03T05:58:45.925Z,21.52
2022-08-03T06:01:12.714Z,21.55
2022-08-03T06:03:39.368Z,21.59
2022-08-03T06:06:05.998Z,21.66
2022-08-03T06:08:32.709Z,21.67
2022-08-03T06:10:59.284Z,21.70
2022-08-03T06:13:25.831Z,21.74
2022-08-03T06:15:52.359Z,21.83
2022-08-03T06:18:19.070Z,21.87
2022-08-03T06:20:45.567Z,21.95
2022-08-03T06:23:16.097Z,22.07
2022-08-03T06:25:44.361Z,22.14
2022-08-03T06:28:18.975Z,22.22
2022-08-03T06:30:50.722Z,22.32
2022-08-03T06:33:17.312Z,22.35
2022-08-03T06:35:45.229Z,22.45
2022-08-03T06:38:15.130Z,22.46
2022-08-03T06:40:41.815Z,22.55
2022-08-03T06:43:12.329Z,22.69
2022-08-03T06:45:39.747Z,22.74
2022-08-03T06:48:08.303Z,22.88
2022-08-03T06:50:36.550Z,22.96
2022-08-03T06:53:04.566Z,23.23
2022-08-03T06:55:32.356Z,23.55
2022-08-03T06:58:03.107Z,23.69
2022-08-03T07:00:31.007Z,23.78
2022-08-03T07:02:58.580Z,23.90
2022-08-03T07:05:25.606Z,23.93
2022-08-03T07:07:56.837Z,23.92
2022-08-03T07:10:23.592Z,24.03
2022-08-03T07:12:55.744Z,24.09
2022-08-03T07:15:54.656Z,24.28
2022-08-03T07:18:10.148Z,24.42
2022-08-03T07:20:36.762Z,24.76
2022-08-03T07:23:03.375Z,24.93
2022-08-03T07:25:29.864Z,25.01
2022-08-03T07:27:56.500Z,25.06
2022-08-03T07:30:23.528Z,25.17
2022-08-03T07:32:50.868Z,25.23
2022-08-03T07:35:25.032Z,25.20
2022-08-03T07:37:54.524Z,25.26
2022-08-03T07:40:22.049Z,25.35
2022-08-03T07:42:53.315Z,25.33
2022-08-03T07:45:23.268Z,25.49
2022-08-03T07:47:54.268Z,25.69
2022-08-03T07:50:21.956Z,25.85
2022-08-03T07:52:49.561Z,26.01
2022-08-03T07:55:17.933Z,26.11
2022-08-03T07:57:44.620Z,26.28
2022-08-03T08:00:19.520Z,26.38
2022-08-03T08:02:46.426Z,26.64
2022-08-03T08:05:13.197Z,26.88
2022-08-03T08:07:40.492Z,27.10
2022-08-03T08:10:08.725Z,27.29
2022-08-03T08:12:35.981Z,27.37
2022-08-03T08:15:03.837Z,27.44
2022-08-03T08:17:30.419Z,27.56
2022-08-03T08:19:57.009Z,27.79
2022-08-03T08:22:29.889Z,27.83
2022-08-03T08:24:58.310Z,27.99
2022-08-03T08:27:25.019Z,28.04
2022-08-03T08:29:54.180Z,28.09
2022-08-03T08:32:21.920Z,28.19
2022-08-03T08:34:48.431Z,28.43
2022-08-03T08:37:15.206Z,28.59
2022-08-03T08:39:44.548Z,28.77
2022-08-03T08:42:11.150Z,28.66
2022-08-03T08:44:37.823Z,28.65
2022-08-03T08:47:04.819Z,28.66
2022-08-03T08:49:35.059Z,28.83
2022-08-03T08:52:29.481Z,29.10
2022-08-03T08:55:00.152Z,29.14
2022-08-03T08:57:42.262Z,29.16
2022-08-03T09:00:15.238Z,29.29
2022-08-03T09:02:43.462Z,29.40
2022-08-03T09:05:14.797Z,29.42
2022-08-03T09:07:45.747Z,29.62
2022-08-03T09:10:14.524Z,29.78
2022-08-03T09:12:46.237Z,29.83
2022-08-03T09:15:28.202Z,30.01
2022-08-03T09:17:57.287Z,29.91
2022-08-03T09:20:26.417Z,29.89
2022-08-03T09:23:00.294Z,29.93
2022-08-03T09:25:43.344Z,29.98
2022-08-03T09:28:12.480Z,29.94
2022-08-03T09:30:44.854Z,29.96
2022-08-03T09:33:16.477Z,29.94
2022-08-03T09:35:53.706Z,29.95
2022-08-03T09:38:28.062Z,30.01
2022-08-03T09:41:00.071Z,30.23
2022-08-03T09:43:28.066Z,30.26
2022-08-03T09:46:04.118Z,30.33
2022-08-03T09:48:32.532Z,30.25
2022-08-03T09:51:13.026Z,30.36
2022-08-03T09:53:59.007Z,30.43
2022-08-03T09:56:39.063Z,29.95
2022-08-03T09:59:05.803Z,30.05
2022-08-03T10:01:34.693Z,30.31
2022-08-03T10:04:04.322Z,30.36
2022-08-03T10:06:31.417Z,30.50
2022-08-03T10:09:15.512Z,30.56
2022-08-03T10:11:43.872Z,30.64
2022-08-03T10:14:19.068Z,30.70
2022-08-03T10:16:47.664Z,30.84
2022-08-03T10:19:15.531Z,30.86
2022-08-03T10:21:49.418Z,30.56
2022-08-03T10:24:21.015Z,30.67
2022-08-03T10:26:49.720Z,30.71
2022-08-03T10:29:24.751Z,30.77
2022-08-03T10:31:58.073Z,31.01
2022-08-03T10:34:27.191Z,31.04
2022-08-03T10:36:58.211Z,30.86
2022-08-03T10:39:29.034Z,30.73
2022-08-03T10:41:58.704Z,30.93
2022-08-03T10:44:33.710Z,31.03
2022-08-03T10:47:01.533Z,31.18
2022-08-03T10:49:34.697Z,31.16
2022-08-03T10:52:13.183Z,31.18
2022-08-03T10:55:10.093Z,31.00
2022-08-03T10:57:45.858Z,30.92
2022-08-03T11:00:18.410Z,30.78
2022-08-03T11:03:11.391Z,31.00
2022-08-03T11:05:40.987Z,31.20
2022-08-03T11:08:30.899Z,31.38
2022-08-03T11:11:26.155Z,31.34
2022-08-03T11:14:12.788Z,30.98
2022-08-03T11:16:42.263Z,31.22
2022-08-03T11:19:11.029Z,31.61
2022-08-03T11:21:50.247Z,31.58
2022-08-03T11:24:41.357Z,31.13
2022-08-03T11:27:21.431Z,31.45
2022-08-03T11:30:08.268Z,31.53
2022-08-03T11:32:37.752Z,31.69
2022-08-03T11:35:26.520Z,31.78
2022-08-03T11:38:03.136Z,31.55
2022-08-03T11:40:47.042Z,31.29
2022-08-03T11:43:22.686Z,31.19
2022-08-03T11:45:57.511Z,31.43
2022-08-03T11:48:27.843Z,31.35
2022-08-03T11:50:54.682Z,31.74
2022-08-03T11:53:21.246Z,31.78
2022-08-03T11:55:53.131Z,31.75
2022-08-03T11:59:13.240Z,31.91
2022-08-03T12:01:12.347Z,31.89
2022-08-03T12:03:39.060Z,31.79
2022-08-03T12:06:12.681Z,31.83
2022-08-03T12:08:40.601Z,32.11
2022-08-03T12:11:09.343Z,31.65
2022-08-03T12:14:45.121Z,31.49
2022-08-03T12:16:37.787Z,31.55
2022-08-03T12:19:06.700Z,31.76
2022-08-03T12:21:33.407Z,32.07
2022-08-03T12:24:04.764Z,32.17
2022-08-03T12:26:57.224Z,31.86
2022-08-03T12:29:26.288Z,31.41
2022-08-03T12:31:52.871Z,31.68
2022-08-03T12:34:19.698Z,31.46
2022-08-03T12:36:56.291Z,31.69
2022-08-03T12:39:24.898Z,31.67
2022-08-03T12:41:55.695Z,32.03
2022-08-03T12:44:33.768Z,32.23
2022-08-03T12:47:02.459Z,32.11
2022-08-03T12:49:30.419Z,31.84
2022-08-03T12:52:05.257Z,31.50
2022-08-03T12:54:35.917Z,31.49
2022-08-03T12:57:11.133Z,31.69
2022-08-03T12:59:56.015Z,31.71
2022-08-03T13:02:25.070Z,32.04
2022-08-03T13:04:54.127Z,32.22
2022-08-03T13:07:21.853Z,32.48
2022-08-03T13:09:53.014Z,32.32
2022-08-03T13:12:21.619Z,32.31
2022-08-03T13:14:50.832Z,32.41
2022-08-03T13:17:18.044Z,32.18
2022-08-03T13:19:46.363Z,31.78
2022-08-03T13:22:17.459Z,31.82
2022-08-03T13:24:45.714Z,32.08
2022-08-03T13:28:02.665Z,32.17
2022-08-03T13:30:00.012Z,32.05
2022-08-03T13:32:26.560Z,31.85
2022-08-03T13:34:53.259Z,31.53
2022-08-03T13:37:20.082Z,31.50
2022-08-03T13:39:57.645Z,31.52
2022-08-03T13:42:26.645Z,31.51
2022-08-03T13:44:53.261Z,31.56
2022-08-03T13:47:20.598Z,31.64
2022-08-03T13:49:59.421Z,31.90
2022-08-03T13:52:27.944Z,31.70
2022-08-03T13:54:54.591Z,31.78
2022-08-03T13:58:04.488Z,31.85
2022-08-03T14:00:08.583Z,32.16
2022-08-03T14:02:35.166Z,32.03
2022-08-03T14:05:01.717Z,32.06
2022-08-03T14:07:28.246Z,31.97
2022-08-03T14:09:58.194Z,31.83
2022-08-03T14:12:24.729Z,31.81
2022-08-03T14:14:51.235Z,31.93
2022-08-03T14:17:18.068Z,31.72
2022-08-03T14:19:53.561Z,31.62
2022-08-03T14:22:21.138Z,31.52
2022-08-03T14:24:47.697Z,31.47
2022-08-03T14:27:16.350Z,31.39
2022-08-03T14:29:42.910Z,31.37
2022-08-03T14:32:12.899Z,31.36
2022-08-03T14:34:40.547Z,31.34
2022-08-03T14:37:07.101Z,31.32
2022-08-03T14:42:20.463Z,31.31
2022-08-03T14:44:48.033Z,31.36
2022-08-03T14:47:14.789Z,31.20
2022-08-03T14:50:37.901Z,31.11
2022-08-03T14:52:28.627Z,31.14
2022-08-03T14:54:55.210Z,31.17
2022-08-03T14:57:22.104Z,31.20
2022-08-03T14:59:56.851Z,31.14
2022-08-03T15:02:24.416Z,31.30
2022-08-03T15:04:51.487Z,31.48
2022-08-03T15:07:18.369Z,31.51
2022-08-03T15:09:45.107Z,31.49
2022-08-03T15:12:11.668Z,31.41
2022-08-03T15:14:39.094Z,31.39
2022-08-03T15:17:06.236Z,31.26
2022-08-03T15:20:03.461Z,31.13
2022-08-03T15:22:20.736Z,30.86
2022-08-03T15:24:56.172Z,30.65
2022-08-03T15:27:23.278Z,30.67
2022-08-03T15:30:05.159Z,30.77
2022-08-03T15:32:33.841Z,30.84
2022-08-03T15:35:00.681Z,30.69
2022-08-03T15:37:27.720Z,30.62
2022-08-03T15:39:59.537Z,30.71
2022-08-03T15:42:28.537Z,30.78
2022-08-03T15:44:55.209Z,30.82
2022-08-03T15:47:22.135Z,30.82
2022-08-03T15:49:48.908Z,30.79
2022-08-03T15:52:15.476Z,30.77
2022-08-03T15:54:42.293Z,30.77
2022-08-03T15:57:08.819Z,30.74
2022-08-03T15:59:35.374Z,30.78
2022-08-03T16:02:02.083Z,30.84
2022-08-03T16:04:28.834Z,30.84
2022-08-03T16:06:55.388Z,30.72
2022-08-03T16:09:24.121Z,30.60
2022-08-03T16:12:15.695Z,30.54
2022-08-03T16:14:53.419Z,30.54
2022-08-03T16:17:21.616Z,30.51
2022-08-03T16:19:48.575Z,30.50
2022-08-03T16:22:17.435Z,30.55
2022-08-03T16:24:46.897Z,30.59
2022-08-03T16:27:36.667Z,30.58
2022-08-03T16:30:00.050Z,30.62
2022-08-03T16:32:26.552Z,30.65
2022-08-03T16:34:53.254Z,30.60
2022-08-03T16:37:38.030Z,30.40
2022-08-03T16:40:17.664Z,30.30
2022-08-03T16:42:48.825Z,30.06
2022-08-03T16:45:15.412Z,30.02
2022-08-03T16:47:42.069Z,29.83
2022-08-03T16:50:15.939Z,29.82
2022-08-03T16:52:47.677Z,29.82
2022-08-03T16:55:15.998Z,29.64
2022-08-03T16:58:03.754Z,29.61
2022-08-03T17:00:33.386Z,29.48
2022-08-03T17:03:04.354Z,29.36
2022-08-03T17:05:50.807Z,29.32
2022-08-03T17:08:26.928Z,29.30
2022-08-03T17:10:54.431Z,29.21
2022-08-03T17:13:22.470Z,29.02
2022-08-03T17:16:00.942Z,28.83
2022-08-03T17:18:37.666Z,28.66
2022-08-03T17:21:10.157Z,28.58
2022-08-03T17:23:44.642Z,28.53
2022-08-03T17:26:21.056Z,28.54
2022-08-03T17:28:57.499Z,28.57
2022-08-03T17:31:31.234Z,28.43
2022-08-03T17:34:01.418Z,28.31
2022-08-03T17:36:47.656Z,28.21
2022-08-03T17:39:16.804Z,28.11
2022-08-03T17:41:50.133Z,28.12
2022-08-03T17:44:28.919Z,28.05
2022-08-03T17:46:59.840Z,27.95
2022-08-03T17:49:27.868Z,27.90
2022-08-03T17:52:02.988Z,27.82
2022-08-03T17:54:29.889Z,27.72
2022-08-03T17:57:22.417Z,27.68
2022-08-03T17:59:56.075Z,27.64
2022-08-03T18:03:12.472Z,27.76
2022-08-03T18:06:11.499Z,27.87
2022-08-03T18:08:33.711Z,27.93
2022-08-03T18:11:14.811Z,27.90
2022-08-03T18:14:16.501Z,27.82
2022-08-03T18:16:56.385Z,27.80
2022-08-03T18:20:02.610Z,27.71
2022-08-03T18:22:13.605Z,27.49
2022-08-03T18:24:42.188Z,27.39
2022-08-03T18:27:10.883Z,27.26
2022-08-03T18:29:41.558Z,27.18
2022-08-03T18:32:25.187Z,27.17
2022-08-03T18:34:55.893Z,27.12
2022-08-03T18:37:26.202Z,27.13
2022-08-03T18:39:57.943Z,27.09
2022-08-03T18:42:26.357Z,27.07
2022-08-03T18:44:56.491Z,27.02
2022-08-03T18:47:23.343Z,26.96
2022-08-03T18:50:13.413Z,26.90
2022-08-03T18:53:16.551Z,26.82
2022-08-03T18:56:02.171Z,26.74
2022-08-03T18:59:02.531Z,26.66
2022-08-03T19:02:00.496Z,26.59
2022-08-03T19:04:46.524Z,26.52
2022-08-03T19:07:22.272Z,26.46
2022-08-03T19:10:11.551Z,26.41
2022-08-03T19:12:48.837Z,26.38
2022-08-03T19:15:15.898Z,26.34
2022-08-03T19:17:50.170Z,26.31
2022-08-03T19:20:21.955Z,26.25
2022-08-03T19:22:51.168Z,26.26
2022-08-03T19:25:18.936Z,26.20
2022-08-03T19:27:49.673Z,26.19
2022-08-03T19:30:39.526Z,26.19
2022-08-03T19:33:14.572Z,26.08
2022-08-03T19:35:49.722Z,25.84
2022-08-03T19:38:28.428Z,25.64
2022-08-03T19:41:02.292Z,25.54
2022-08-03T19:43:52.809Z,25.50
2022-08-03T19:49:16.806Z,25.57
2022-08-03T19:52:01.083Z,25.57
2022-08-03T19:54:39.563Z,25.55
2022-08-03T19:57:24.364Z,25.53
2022-08-03T19:59:55.439Z,25.54
2022-08-03T20:02:27.963Z,25.49
2022-08-03T20:05:00.529Z,25.42
2022-08-03T20:07:30.720Z,25.45
2022-08-03T20:09:59.534Z,25.42
2022-08-03T20:12:29.294Z,25.44
2022-08-03T20:14:57.352Z,25.39
2022-08-03T20:17:54.849Z,25.27
2022-08-03T20:20:11.981Z,25.28
2022-08-03T20:22:45.601Z,25.28
2022-08-03T20:25:16.335Z,25.20
2022-08-03T20:28:08.111Z,25.18
2022-08-03T20:30:38.429Z,25.16
2022-08-03T20:33:09.175Z,25.09
2022-08-03T20:35:35.783Z,24.80
2022-08-03T20:38:03.476Z,24.61
2022-08-03T20:40:30.015Z,24.31
2022-08-03T20:42:56.521Z,24.26
2022-08-03T20:45:58.270Z,24.15
2022-08-03T20:48:10.351Z,24.25
2022-08-03T20:50:38.659Z,24.23
2022-08-03T20:53:09.994Z,24.18
2022-08-03T20:55:48.159Z,24.21
2022-08-03T20:58:25.853Z,24.24
2022-08-03T21:00:54.369Z,24.17
2022-08-03T21:03:20.910Z,24.19
2022-08-03T21:05:51.857Z,24.29
2022-08-03T21:08:25.560Z,24.26
2022-08-03T21:10:56.411Z,24.26
2022-08-03T21:13:09.087Z,25.49
2022-08-03T21:13:56.363Z,24.26
2022-08-03T21:16:26.915Z,24.26
2022-08-03T21:18:54.485Z,24.28
2022-08-03T21:21:23.155Z,24.30
2022-08-03T21:23:53.325Z,24.35
2022-08-03T21:26:24.609Z,24.34
2022-08-03T21:28:53.918Z,24.29
2022-08-03T21:31:24.580Z,24.25
2022-08-03T21:33:57.537Z,24.18
2022-08-03T21:36:27.601Z,24.24
2022-08-03T21:38:57.308Z,24.24
2022-08-03T21:41:26.452Z,24.20
2022-08-03T21:43:55.922Z,24.15
2022-08-03T21:46:23.520Z,24.21
2022-08-03T21:48:55.978Z,24.16
2022-08-03T21:51:28.764Z,24.18
2022-08-03T21:54:02.395Z,24.14
2022-08-03T21:56:37.141Z,24.08
2022-08-03T21:59:06.986Z,24.08
2022-08-03T22:01:38.127Z,24.06
2022-08-03T22:04:06.861Z,24.08
2022-08-03T22:06:42.258Z,24.01
2022-08-03T22:09:09.146Z,23.90
2022-08-03T22:11:37.405Z,23.91
2022-08-03T22:14:04.767Z,23.92
2022-08-03T22:16:31.701Z,23.90
2022-08-03T22:18:58.312Z,23.90
2022-08-03T22:21:35.872Z,23.86
2022-08-03T22:24:05.310Z,23.84
2022-08-03T22:26:59.588Z,23.84
2022-08-03T22:29:26.183Z,23.83
2022-08-03T22:31:58.916Z,23.80
2022-08-03T22:34:27.284Z,23.81
2022-08-03T22:37:00.831Z,23.83
2022-08-03T22:39:28.993Z,23.85
2022-08-03T22:41:59.038Z,23.82
2022-08-03T22:44:31.322Z,23.84
2022-08-03T22:46:58.426Z,23.89
2022-08-03T22:49:27.992Z,23.89
2022-08-03T22:51:55.317Z,23.86
2022-08-03T22:54:23.552Z,23.84
2022-08-03T22:56:51.107Z,23.80
2022-08-03T22:59:40.633Z,23.74
2022-08-03T23:02:15.175Z,23.70
2022-08-03T23:04:53.144Z,23.70
2022-08-03T23:07:22.855Z,23.72
2022-08-03T23:09:49.674Z,23.69
2022-08-03T23:12:20.209Z,23.69
2022-08-03T23:14:53.647Z,23.67
2022-08-03T23:17:22.551Z,23.65
2022-08-03T23:19:52.163Z,23.68
2022-08-03T23:22:30.024Z,23.64
2022-08-03T23:24:58.599Z,23.63
2022-08-03T23:27:27.318Z,23.61
2022-08-03T23:29:54.298Z,23.56
2022-08-03T23:32:21.048Z,23.53
2022-08-03T23:35:07.607Z,23.53
2022-08-03T23:38:21.316Z,23.52
2022-08-03T23:40:28.873Z,23.49
2022-08-03T23:42:57.133Z,23.40
2022-08-03T23:45:27.601Z,23.38
2022-08-03T23:47:54.783Z,23.37
2022-08-03T23:50:21.666Z,23.36
2022-08-03T23:53:16.192Z,23.33
2022-08-03T23:56:12.669Z,23.36
2022-08-03T23:59:06.051Z,23.32
